KNID

China Lake Naws (Armitage Field) Airport

China Lake, California, USA
METAR KNID 181356Z 29008KT 10SM CLR 07/02 A3012 RMK AO2 SLP200 T00720022 $
Observed Flight Rules
Jan-18 @ 13:56 UTC (48 minutes ago) Visual Flight Rules
Wind Visibility Clouds
290° at 8 knots 10 miles
  • Clear skies
Temperatures Readings
Current 7°C / 45°F
Dewpoint 2°C / 36°F
Humidity 71%
Altimeter 30.12" Hg
Pressure 1020 hPa
Elevation 696
METAR KNID 181356Z 29008KT 10SM CLR 07/02 A3012 RMK AO2 SLP200 T00720022 $
Observed Flight Rules
Jan-18 @ 13:56 UTC
(48 minutes ago)
VFR
Wind Visibility
290° at 8 knots 10 miles
Clouds
  • Clear skies
Temperature Dewpoint
7°C / 45°F 2°C / 36°F
Humidity Altimeter Pressure
71% 30.12" Hg 1020 hPa